createdAt,value
2024-05-09T00:00:18.201Z,96588.00
2024-05-09T00:01:13.070Z,96589.00
2024-05-09T00:02:12.130Z,96586.00
2024-05-09T00:03:12.507Z,96584.00
2024-05-09T00:04:12.132Z,96585.00
2024-05-09T00:05:12.123Z,96584.00
2024-05-09T00:06:12.186Z,96582.00
2024-05-09T00:07:12.086Z,96584.00
2024-05-09T00:08:12.510Z,96582.00
2024-05-09T00:09:12.071Z,96582.00
2024-05-09T00:10:22.076Z,96583.00
2024-05-09T00:11:13.204Z,96581.00
2024-05-09T00:12:12.150Z,96580.00
2024-05-09T00:13:12.075Z,96579.00
2024-05-09T00:14:12.110Z,96581.00
2024-05-09T00:15:12.078Z,96582.00
2024-05-09T00:16:12.087Z,96579.00
2024-05-09T00:17:12.252Z,96579.00
2024-05-09T00:18:12.284Z,96579.00
2024-05-09T00:19:12.287Z,96578.00
2024-05-09T00:20:17.735Z,96578.00
2024-05-09T00:21:13.159Z,96576.00
2024-05-09T00:22:12.133Z,96575.00
2024-05-09T00:23:13.023Z,96574.00
2024-05-09T00:24:12.085Z,96573.00
2024-05-09T00:25:12.092Z,96571.00
2024-05-09T00:26:12.140Z,96571.00
2024-05-09T00:27:13.433Z,96568.00
2024-05-09T00:28:12.264Z,96566.00
2024-05-09T00:29:12.152Z,96565.00
2024-05-09T00:30:17.785Z,96564.00
2024-05-09T00:31:13.176Z,96564.00
2024-05-09T00:32:12.230Z,96562.00
2024-05-09T00:33:12.400Z,96563.00
2024-05-09T00:34:12.314Z,96561.00
2024-05-09T00:35:12.355Z,96559.00
2024-05-09T00:36:12.119Z,96560.00
2024-05-09T00:37:12.151Z,96560.00
2024-05-09T00:38:12.223Z,96558.00
2024-05-09T00:39:12.149Z,96559.00
2024-05-09T00:40:18.662Z,96558.00
2024-05-09T00:41:14.153Z,96558.00
2024-05-09T00:42:12.154Z,96558.00
2024-05-09T00:43:13.266Z,96557.00
2024-05-09T00:44:12.190Z,96558.00
2024-05-09T00:45:12.151Z,96558.00
2024-05-09T00:46:12.159Z,96556.00
2024-05-09T00:47:12.285Z,96555.00
2024-05-09T00:48:14.116Z,96555.00
2024-05-09T00:49:12.311Z,96554.00
2024-05-09T00:50:18.985Z,96554.00
2024-05-09T00:51:13.310Z,96555.00
2024-05-09T00:52:12.199Z,96553.00
2024-05-09T00:53:12.277Z,96554.00
2024-05-09T00:54:12.207Z,96555.00
2024-05-09T00:55:12.199Z,96553.00
2024-05-09T00:56:12.299Z,96552.00
2024-05-09T00:57:15.396Z,96551.00
2024-05-09T00:58:12.274Z,96551.00
2024-05-09T00:59:12.278Z,96550.00
2024-05-09T01:00:22.533Z,96548.00
2024-05-09T01:01:13.213Z,96547.00
2024-05-09T01:02:12.259Z,96549.00
2024-05-09T01:03:13.838Z,96548.00
2024-05-09T01:04:12.239Z,96547.00
2024-05-09T01:05:12.240Z,96547.00
2024-05-09T01:06:12.203Z,96547.00
2024-05-09T01:07:12.224Z,96546.00
2024-05-09T01:08:12.391Z,96546.00
2024-05-09T01:09:12.297Z,96546.00
2024-05-09T01:10:17.394Z,96547.00
2024-05-09T01:11:13.384Z,96548.00
2024-05-09T01:12:12.446Z,96547.00
2024-05-09T01:13:12.390Z,96544.00
2024-05-09T01:14:12.375Z,96545.00
2024-05-09T01:15:12.362Z,96544.00
2024-05-09T01:16:13.091Z,96542.00
2024-05-09T01:17:12.491Z,96542.00
2024-05-09T01:18:13.549Z,96543.00
2024-05-09T01:19:12.481Z,96540.00
2024-05-09T01:20:19.818Z,96543.00
2024-05-09T01:21:13.477Z,96541.00
2024-05-09T01:22:12.368Z,96543.00
2024-05-09T01:23:13.160Z,96541.00
2024-05-09T01:24:12.362Z,96543.00
2024-05-09T01:25:12.367Z,96542.00
2024-05-09T01:26:12.410Z,96542.00
2024-05-09T01:27:12.451Z,96542.00
2024-05-09T01:28:12.427Z,96542.00
2024-05-09T01:29:12.542Z,96545.00
2024-05-09T01:31:12.532Z,96543.00
2024-05-09T01:32:12.713Z,96544.00
2024-05-09T01:33:13.415Z,96543.00
2024-05-09T01:34:12.710Z,96544.00
2024-05-09T01:35:12.741Z,96542.00
2024-05-09T01:36:12.779Z,96544.00
2024-05-09T01:37:12.824Z,96542.00
2024-05-09T01:38:13.424Z,96541.00
2024-05-09T01:39:12.935Z,96543.00
2024-05-09T01:40:18.430Z,96542.00
2024-05-09T01:41:13.983Z,96542.00
2024-05-09T01:42:12.975Z,96542.00
2024-05-09T01:43:12.964Z,96541.00
2024-05-09T01:44:13.002Z,96542.00
2024-05-09T01:45:12.975Z,96543.00
2024-05-09T01:46:12.982Z,96542.00
2024-05-09T01:47:13.059Z,96541.00
2024-05-09T01:48:13.189Z,96542.00
2024-05-09T01:49:13.175Z,96537.00
2024-05-09T01:50:16.379Z,96538.00
2024-05-09T01:51:13.151Z,96538.00
2024-05-09T01:52:13.030Z,96539.00
2024-05-09T01:53:13.724Z,96539.00
2024-05-09T01:54:13.031Z,96539.00
2024-05-09T01:55:13.009Z,96539.00
2024-05-09T01:56:13.055Z,96536.00
2024-05-09T01:57:13.116Z,96537.00
2024-05-09T01:58:13.132Z,96537.00
2024-05-09T01:59:13.057Z,96538.00
2024-05-09T02:00:15.768Z,96538.00
2024-05-09T02:01:14.069Z,96536.00
2024-05-09T02:02:13.232Z,96537.00
2024-05-09T02:03:15.687Z,96537.00
2024-05-09T02:04:13.323Z,96537.00
2024-05-09T02:05:13.221Z,96537.00
2024-05-09T02:06:13.076Z,96537.00
2024-05-09T02:07:13.027Z,96538.00
2024-05-09T02:08:13.077Z,96536.00
2024-05-09T02:09:13.027Z,96534.00
2024-05-09T02:10:20.178Z,96535.00
2024-05-09T02:11:14.150Z,96531.00
2024-05-09T02:12:13.157Z,96532.00
2024-05-09T02:13:13.074Z,96531.00
2024-05-09T02:14:13.060Z,96531.00
2024-05-09T02:15:13.038Z,96531.00
2024-05-09T02:16:13.032Z,96529.00
2024-05-09T02:17:13.133Z,96531.00
2024-05-09T02:18:13.644Z,96532.00
2024-05-09T02:19:13.226Z,96532.00
2024-05-09T02:20:18.960Z,96533.00
2024-05-09T02:21:14.215Z,96535.00
2024-05-09T02:22:13.054Z,96532.00
2024-05-09T02:23:13.233Z,96533.00
2024-05-09T02:24:13.064Z,96534.00
2024-05-09T02:25:13.073Z,96535.00
2024-05-09T02:26:13.073Z,96534.00
2024-05-09T02:27:13.135Z,96534.00
2024-05-09T02:28:13.062Z,96534.00
2024-05-09T02:29:13.118Z,96533.00
2024-05-09T02:30:19.075Z,96531.00
2024-05-09T02:31:14.138Z,96531.00
2024-05-09T02:32:13.138Z,96532.00
2024-05-09T02:33:14.396Z,96530.00
2024-05-09T02:34:13.178Z,96529.00
2024-05-09T02:35:13.138Z,96528.00
2024-05-09T02:36:13.083Z,96526.00
2024-05-09T02:37:13.139Z,96525.00
2024-05-09T02:38:13.619Z,96526.00
2024-05-09T02:39:13.127Z,96524.00
2024-05-09T02:40:14.928Z,96526.00
2024-05-09T02:41:14.130Z,96525.00
2024-05-09T02:42:13.089Z,96525.00
2024-05-09T02:43:13.358Z,96527.00
2024-05-09T02:44:13.174Z,96527.00
2024-05-09T02:45:13.087Z,96525.00
2024-05-09T02:46:13.118Z,96528.00
2024-05-09T02:47:14.402Z,96526.00
2024-05-09T02:48:14.029Z,96531.00
2024-05-09T02:49:13.241Z,96530.00
2024-05-09T02:51:13.155Z,96531.00
2024-05-09T02:52:13.219Z,96531.00
2024-05-09T02:53:13.782Z,96533.00
2024-05-09T02:54:13.323Z,96531.00
2024-05-09T02:55:13.374Z,96528.00
2024-05-09T02:56:13.394Z,96532.00
2024-05-09T02:57:13.425Z,96529.00
2024-05-09T02:58:13.470Z,96530.00
2024-05-09T02:59:13.598Z,96529.00
2024-05-09T03:00:19.043Z,96528.00
2024-05-09T03:01:14.663Z,96527.00
2024-05-09T03:02:13.705Z,96526.00
2024-05-09T03:03:15.405Z,96528.00
2024-05-09T03:04:13.656Z,96527.00
2024-05-09T03:05:13.656Z,96528.00
2024-05-09T03:06:13.611Z,96529.00
2024-05-09T03:07:13.614Z,96529.00
2024-05-09T03:08:13.890Z,96530.00
2024-05-09T03:09:13.740Z,96532.00
2024-05-09T03:10:18.513Z,96532.00
2024-05-09T03:11:14.883Z,96533.00
2024-05-09T03:12:13.919Z,96533.00
2024-05-09T03:13:15.162Z,96533.00
2024-05-09T03:14:13.955Z,96534.00
2024-05-09T03:15:13.802Z,96533.00
2024-05-09T03:16:13.805Z,96534.00
2024-05-09T03:17:17.380Z,96532.00
2024-05-09T03:18:14.159Z,96531.00
2024-05-09T03:19:13.971Z,96529.00
2024-05-09T03:20:20.415Z,96532.00
2024-05-09T03:21:19.457Z,96530.00
2024-05-09T03:22:14.048Z,96531.00
2024-05-09T03:23:14.209Z,96530.00
2024-05-09T03:24:14.133Z,96529.00
2024-05-09T03:25:14.266Z,96528.00
2024-05-09T03:26:14.318Z,96529.00
2024-05-09T03:27:14.288Z,96529.00
2024-05-09T03:28:14.345Z,96528.00
2024-05-09T03:29:14.488Z,96528.00
2024-05-09T03:31:14.625Z,96530.00
2024-05-09T03:32:14.789Z,96530.00
2024-05-09T03:33:15.688Z,96529.00
2024-05-09T03:34:14.840Z,96531.00
2024-05-09T03:35:15.097Z,96528.00
2024-05-09T03:36:15.053Z,96528.00
2024-05-09T03:37:15.180Z,96527.00
2024-05-09T03:38:15.492Z,96529.00
2024-05-09T03:39:15.393Z,96528.00
2024-05-09T03:40:20.883Z,96527.00
2024-05-09T03:41:16.581Z,96527.00
2024-05-09T03:42:15.580Z,96527.00
2024-05-09T03:43:15.598Z,96526.00
2024-05-09T03:44:15.771Z,96529.00
2024-05-09T03:45:15.547Z,96530.00
2024-05-09T03:46:15.547Z,96529.00
2024-05-09T03:47:15.618Z,96530.00
2024-05-09T03:48:15.948Z,96531.00
2024-05-09T03:49:15.703Z,96530.00
2024-05-09T03:50:22.583Z,96530.00
2024-05-09T03:51:16.542Z,96529.00
2024-05-09T03:52:15.545Z,96528.00
2024-05-09T03:53:15.624Z,96529.00
2024-05-09T03:54:15.558Z,96529.00
2024-05-09T03:55:15.574Z,96530.00
2024-05-09T03:56:15.655Z,96533.00
2024-05-09T03:57:15.604Z,96533.00
2024-05-09T03:58:15.555Z,96536.00
2024-05-09T03:59:15.642Z,96535.00
2024-05-09T04:00:22.108Z,96539.00
2024-05-09T04:01:16.766Z,96539.00
2024-05-09T04:02:15.793Z,96541.00
2024-05-09T04:03:16.182Z,96539.00
2024-05-09T04:04:15.766Z,96542.00
2024-05-09T04:05:15.789Z,96541.00
2024-05-09T04:06:15.777Z,96543.00
2024-05-09T04:07:15.775Z,96545.00
2024-05-09T04:08:16.088Z,96544.00
2024-05-09T04:09:15.780Z,96547.00
2024-05-09T04:10:24.022Z,96548.00
2024-05-09T04:11:16.852Z,96548.00
2024-05-09T04:12:15.865Z,96549.00
2024-05-09T04:13:15.763Z,96548.00
2024-05-09T04:14:15.844Z,96551.00
2024-05-09T04:15:15.779Z,96547.00
2024-05-09T04:16:15.809Z,96548.00
2024-05-09T04:17:16.450Z,96547.00
2024-05-09T04:18:15.857Z,96546.00
2024-05-09T04:19:15.997Z,96547.00
2024-05-09T04:20:28.250Z,96547.00
2024-05-09T04:21:16.873Z,96547.00
2024-05-09T04:22:15.789Z,96548.00
2024-05-09T04:23:15.833Z,96548.00
2024-05-09T04:24:15.785Z,96548.00
2024-05-09T04:25:15.821Z,96549.00
2024-05-09T04:26:15.827Z,96548.00
2024-05-09T04:27:15.793Z,96550.00
2024-05-09T04:28:15.784Z,96550.00
2024-05-09T04:29:15.861Z,96550.00
2024-05-09T04:30:25.354Z,96551.00
2024-05-09T04:31:16.908Z,96551.00
2024-05-09T04:32:16.000Z,96552.00
2024-05-09T04:33:16.077Z,96554.00
2024-05-09T04:34:16.249Z,96553.00
2024-05-09T04:35:23.678Z,96553.00
2024-05-09T04:36:23.524Z,96554.00
2024-05-09T04:37:23.545Z,96557.00
2024-05-09T04:38:23.646Z,96557.00
2024-05-09T04:39:23.540Z,96559.00
2024-05-09T04:40:30.817Z,96559.00
2024-05-09T04:41:24.632Z,96557.00
2024-05-09T04:42:23.559Z,96560.00
2024-05-09T04:43:23.556Z,96559.00
2024-05-09T04:44:23.558Z,96559.00
2024-05-09T04:45:23.548Z,96558.00
2024-05-09T04:46:23.554Z,96557.00
2024-05-09T04:47:23.811Z,96558.00
2024-05-09T04:48:23.646Z,96558.00
2024-05-09T04:49:23.767Z,96559.00
2024-05-09T04:51:23.561Z,96560.00
2024-05-09T04:52:23.560Z,96560.00
2024-05-09T04:53:23.600Z,96561.00
2024-05-09T04:54:33.641Z,96563.00
2024-05-09T04:55:24.614Z,96565.00
2024-05-09T04:56:23.640Z,96565.00
2024-05-09T04:57:23.597Z,96567.00
2024-05-09T04:58:23.602Z,96568.00
2024-05-09T04:59:23.625Z,96571.00
2024-05-09T05:00:31.992Z,96571.00
2024-05-09T05:01:24.669Z,96571.00
2024-05-09T05:02:23.692Z,96572.00
2024-05-09T05:03:23.766Z,96572.00
2024-05-09T05:04:23.619Z,96572.00
2024-05-09T05:05:23.656Z,96572.00
2024-05-09T05:06:23.609Z,96571.00
2024-05-09T05:07:23.616Z,96572.00
2024-05-09T05:08:23.660Z,96569.00
2024-05-09T05:09:23.670Z,96569.00
2024-05-09T05:10:32.937Z,96567.00
2024-05-09T05:11:24.774Z,96567.00
2024-05-09T05:12:23.826Z,96568.00
2024-05-09T05:13:24.510Z,96566.00
2024-05-09T05:14:23.806Z,96564.00
2024-05-09T05:15:23.635Z,96562.00
2024-05-09T05:16:23.647Z,96563.00
2024-05-09T05:17:23.777Z,96561.00
2024-05-09T05:18:23.841Z,96563.00
2024-05-09T05:19:23.733Z,96561.00
2024-05-09T05:20:30.956Z,96563.00
2024-05-09T05:21:24.863Z,96564.00
2024-05-09T05:22:27.780Z,96564.00
2024-05-09T05:23:23.948Z,96565.00
2024-05-09T05:24:23.740Z,96564.00
2024-05-09T05:25:23.742Z,96567.00
2024-05-09T05:26:23.771Z,96567.00
2024-05-09T05:27:23.844Z,96566.00
2024-05-09T05:28:23.941Z,96568.00
2024-05-09T05:29:23.810Z,96569.00
2024-05-09T05:30:29.051Z,96568.00
2024-05-09T05:31:24.783Z,96567.00
2024-05-09T05:32:23.916Z,96568.00
2024-05-09T05:33:23.907Z,96570.00
2024-05-09T05:34:23.773Z,96569.00
2024-05-09T05:35:23.881Z,96571.00
2024-05-09T05:36:23.748Z,96571.00
2024-05-09T05:37:23.790Z,96567.00
2024-05-09T05:38:27.383Z,96569.00
2024-05-09T05:39:23.766Z,96569.00
2024-05-09T05:40:32.367Z,96571.00
2024-05-09T05:41:24.845Z,96570.00
2024-05-09T05:42:25.989Z,96569.00
2024-05-09T05:43:23.760Z,96569.00
2024-05-09T05:44:23.898Z,96568.00
2024-05-09T05:45:23.764Z,96570.00
2024-05-09T05:46:23.770Z,96568.00
2024-05-09T05:47:23.877Z,96571.00
2024-05-09T05:48:24.071Z,96570.00
2024-05-09T05:49:24.089Z,96569.00
2024-05-09T05:50:31.902Z,96570.00
2024-05-09T05:51:25.032Z,96572.00
2024-05-09T05:52:24.089Z,96573.00
2024-05-09T05:53:24.118Z,96569.00
2024-05-09T05:54:24.149Z,96572.00
2024-05-09T05:55:23.983Z,96571.00
2024-05-09T05:56:24.067Z,96570.00
2024-05-09T05:57:29.039Z,96569.00
2024-05-09T05:58:24.026Z,96567.00
2024-05-09T05:59:24.104Z,96570.00
2024-05-09T06:01:24.092Z,96570.00
2024-05-09T06:02:24.098Z,96571.00
2024-05-09T06:03:24.067Z,96572.00
2024-05-09T06:04:24.123Z,96573.00
2024-05-09T06:05:26.010Z,96576.00
2024-05-09T06:06:24.055Z,96577.00
2024-05-09T06:07:24.046Z,96574.00
2024-05-09T06:08:26.182Z,96574.00
2024-05-09T06:09:24.044Z,96573.00
2024-05-09T06:10:26.478Z,96575.00
2024-05-09T06:11:25.187Z,96570.00
2024-05-09T06:12:24.180Z,96570.00
2024-05-09T06:13:24.074Z,96572.00
2024-05-09T06:14:24.231Z,96569.00
2024-05-09T06:15:24.052Z,96570.00
2024-05-09T06:16:24.090Z,96570.00
2024-05-09T06:17:24.203Z,96572.00
2024-05-09T06:18:24.569Z,96573.00
2024-05-09T06:19:24.512Z,96575.00
2024-05-09T06:20:33.592Z,96576.00
2024-05-09T06:21:25.120Z,96575.00
2024-05-09T06:22:24.048Z,96575.00
2024-05-09T06:23:24.131Z,96574.00
2024-05-09T06:24:24.064Z,96573.00
2024-05-09T06:25:24.121Z,96573.00
2024-05-09T06:26:24.108Z,96574.00
2024-05-09T06:27:24.067Z,96573.00
2024-05-09T06:28:24.074Z,96573.00
2024-05-09T06:29:24.197Z,96574.00
2024-05-09T06:30:30.787Z,96575.00
2024-05-09T06:31:25.173Z,96576.00
2024-05-09T06:32:24.420Z,96574.00
2024-05-09T06:33:24.605Z,96576.00
2024-05-09T06:34:24.347Z,96577.00
2024-05-09T06:35:24.272Z,96575.00
2024-05-09T06:36:24.196Z,96574.00
2024-05-09T06:37:24.188Z,96574.00
2024-05-09T06:38:24.339Z,96575.00
2024-05-09T06:39:24.164Z,96576.00
2024-05-09T06:40:29.295Z,96578.00
2024-05-09T06:41:25.292Z,96579.00
2024-05-09T06:42:24.252Z,96579.00
2024-05-09T06:43:24.214Z,96581.00
2024-05-09T06:44:24.339Z,96583.00
2024-05-09T06:45:24.253Z,96583.00
2024-05-09T06:46:24.274Z,96584.00
2024-05-09T06:47:24.535Z,96582.00
2024-05-09T06:48:24.427Z,96586.00
2024-05-09T06:49:24.492Z,96584.00
2024-05-09T06:50:28.131Z,96584.00
2024-05-09T06:51:25.320Z,96585.00
2024-05-09T06:52:24.277Z,96584.00
2024-05-09T06:53:24.385Z,96586.00
2024-05-09T06:54:24.258Z,96587.00
2024-05-09T06:55:24.296Z,96586.00
2024-05-09T06:56:24.404Z,96587.00
2024-05-09T06:57:24.355Z,96585.00
2024-05-09T06:58:24.309Z,96586.00
2024-05-09T06:59:24.315Z,96584.00
2024-05-09T07:00:30.864Z,96586.00
2024-05-09T07:01:25.355Z,96584.00
2024-05-09T07:02:24.475Z,96583.00
2024-05-09T07:03:24.481Z,96584.00
2024-05-09T07:04:24.425Z,96585.00
2024-05-09T07:05:24.486Z,96583.00
2024-05-09T07:06:25.243Z,96587.00
2024-05-09T07:07:24.340Z,96585.00
2024-05-09T07:08:24.365Z,96586.00
2024-05-09T07:09:24.284Z,96585.00
2024-05-09T07:10:29.163Z,96586.00
2024-05-09T07:11:25.403Z,96587.00
2024-05-09T07:12:24.578Z,96585.00
2024-05-09T07:13:24.322Z,96585.00
2024-05-09T07:14:24.350Z,96584.00
2024-05-09T07:15:24.310Z,96585.00
2024-05-09T07:16:24.479Z,96586.00
2024-05-09T07:17:24.435Z,96585.00
2024-05-09T07:18:24.456Z,96586.00
2024-05-09T07:19:24.404Z,96587.00
2024-05-09T07:20:32.341Z,96586.00
2024-05-09T07:21:25.369Z,96586.00
2024-05-09T07:22:24.315Z,96586.00
2024-05-09T07:23:24.397Z,96585.00
2024-05-09T07:24:24.323Z,96585.00
2024-05-09T07:25:24.368Z,96584.00
2024-05-09T07:26:24.439Z,96584.00
2024-05-09T07:27:24.354Z,96582.00
2024-05-09T07:28:24.373Z,96581.00
2024-05-09T07:29:24.438Z,96580.00
2024-05-09T07:30:32.494Z,96580.00
2024-05-09T07:31:25.353Z,96582.00
2024-05-09T07:32:24.596Z,96581.00
2024-05-09T07:33:24.874Z,96582.00
2024-05-09T07:34:24.437Z,96580.00
2024-05-09T07:35:24.395Z,96579.00
2024-05-09T07:36:24.381Z,96579.00
2024-05-09T07:37:24.376Z,96580.00
2024-05-09T07:38:24.463Z,96577.00
2024-05-09T07:39:24.389Z,96581.00
2024-05-09T07:40:32.451Z,96580.00
2024-05-09T07:41:25.433Z,96579.00
2024-05-09T07:42:24.387Z,96578.00
2024-05-09T07:43:24.440Z,96578.00
2024-05-09T07:44:24.415Z,96578.00
2024-05-09T07:45:43.007Z,96577.00
2024-05-09T07:47:20.360Z,96576.00
2024-05-09T07:48:56.914Z,96575.00
2024-05-09T07:50:00.504Z,96572.00
2024-05-09T07:54:24.780Z,96571.00
2024-05-09T07:55:24.651Z,96571.00
2024-05-09T07:56:25.668Z,96570.00
2024-05-09T07:57:24.478Z,96571.00
2024-05-09T07:58:24.485Z,96570.00
2024-05-09T07:59:24.433Z,96569.00
2024-05-09T08:01:24.593Z,96569.00
2024-05-09T08:02:24.693Z,96567.00
2024-05-09T08:03:24.557Z,96567.00
2024-05-09T08:04:26.551Z,96568.00
2024-05-09T08:05:24.511Z,96568.00
2024-05-09T08:06:24.494Z,96567.00
2024-05-09T08:07:24.565Z,96568.00
2024-05-09T08:08:24.588Z,96571.00
2024-05-09T08:09:24.677Z,96569.00
2024-05-09T08:10:28.743Z,96569.00
2024-05-09T08:11:24.869Z,96568.00
2024-05-09T08:12:24.756Z,96568.00
2024-05-09T08:13:24.778Z,96566.00
2024-05-09T08:14:24.788Z,96566.00
2024-05-09T08:15:24.769Z,96564.00
2024-05-09T08:16:25.030Z,96565.00
2024-05-09T08:17:24.941Z,96564.00
2024-05-09T08:18:24.941Z,96564.00
2024-05-09T08:19:24.816Z,96564.00
2024-05-09T08:20:31.033Z,96564.00
2024-05-09T08:21:25.786Z,96563.00
2024-05-09T08:22:24.753Z,96563.00
2024-05-09T08:23:24.812Z,96562.00
2024-05-09T08:24:24.763Z,96563.00
2024-05-09T08:25:24.846Z,96564.00
2024-05-09T08:26:24.796Z,96560.00
2024-05-09T08:27:24.788Z,96566.00
2024-05-09T08:28:24.875Z,96562.00
2024-05-09T08:29:24.791Z,96562.00
2024-05-09T08:30:32.552Z,96563.00
2024-05-09T08:31:25.922Z,96562.00
2024-05-09T08:32:24.815Z,96564.00
2024-05-09T08:33:24.887Z,96561.00
2024-05-09T08:34:24.870Z,96561.00
2024-05-09T08:35:24.791Z,96560.00
2024-05-09T08:36:24.787Z,96558.00
2024-05-09T08:37:29.376Z,96557.00
2024-05-09T08:38:25.806Z,96556.00
2024-05-09T08:39:24.794Z,96558.00
2024-05-09T08:40:31.083Z,96558.00
2024-05-09T08:41:25.822Z,96558.00
2024-05-09T08:42:24.800Z,96557.00
2024-05-09T08:43:24.861Z,96557.00
2024-05-09T08:44:24.813Z,96555.00
2024-05-09T08:45:24.830Z,96554.00
2024-05-09T08:46:24.884Z,96551.00
2024-05-09T08:47:24.970Z,96553.00
2024-05-09T08:48:25.055Z,96551.00
2024-05-09T08:49:24.875Z,96550.00
2024-05-09T08:50:32.297Z,96550.00
2024-05-09T08:51:25.847Z,96549.00
2024-05-09T08:52:24.839Z,96547.00
2024-05-09T08:53:24.869Z,96546.00
2024-05-09T08:54:24.844Z,96546.00
2024-05-09T08:55:24.955Z,96549.00
2024-05-09T08:56:24.841Z,96550.00
2024-05-09T08:57:24.964Z,96549.00
2024-05-09T08:58:24.884Z,96551.00
2024-05-09T08:59:24.874Z,96550.00
2024-05-09T09:00:33.837Z,96548.00
2024-05-09T09:01:25.981Z,96547.00
2024-05-09T09:02:25.043Z,96548.00
2024-05-09T09:03:25.075Z,96547.00
2024-05-09T09:04:25.043Z,96548.00
2024-05-09T09:05:25.119Z,96546.00
2024-05-09T09:06:24.907Z,96544.00
2024-05-09T09:07:24.976Z,96546.00
2024-05-09T09:08:24.890Z,96543.00
2024-05-09T09:09:24.883Z,96543.00
2024-05-09T09:10:31.202Z,96543.00
2024-05-09T09:11:25.932Z,96542.00
2024-05-09T09:12:24.910Z,96542.00
2024-05-09T09:13:24.920Z,96544.00
2024-05-09T09:14:24.892Z,96543.00
2024-05-09T09:15:24.896Z,96541.00
2024-05-09T09:16:24.926Z,96540.00
2024-05-09T09:17:24.966Z,96539.00
2024-05-09T09:18:25.027Z,96536.00
2024-05-09T09:19:25.081Z,96534.00
2024-05-09T09:20:29.722Z,96531.00
2024-05-09T09:21:25.932Z,96533.00
2024-05-09T09:22:24.944Z,96531.00
2024-05-09T09:23:24.947Z,96529.00
2024-05-09T09:24:24.956Z,96529.00
2024-05-09T09:25:24.935Z,96531.00
2024-05-09T09:26:24.950Z,96531.00
2024-05-09T09:27:24.950Z,96532.00
2024-05-09T09:28:24.942Z,96532.00
2024-05-09T09:29:24.953Z,96531.00
2024-05-09T09:30:34.669Z,96530.00
2024-05-09T09:31:26.075Z,96532.00
2024-05-09T09:32:25.037Z,96531.00
2024-05-09T09:33:25.094Z,96529.00
2024-05-09T09:34:25.056Z,96528.00
2024-05-09T09:35:24.948Z,96527.00
2024-05-09T09:36:24.990Z,96528.00
2024-05-09T09:37:24.972Z,96527.00
2024-05-09T09:38:24.975Z,96524.00
2024-05-09T09:39:24.955Z,96524.00
2024-05-09T09:40:31.334Z,96521.00
2024-05-09T09:41:25.983Z,96518.00
2024-05-09T09:42:24.999Z,96517.00
2024-05-09T09:43:25.051Z,96516.00
2024-05-09T09:44:24.982Z,96516.00
2024-05-09T09:45:24.993Z,96516.00
2024-05-09T09:46:25.165Z,96516.00
2024-05-09T09:47:25.050Z,96519.00
2024-05-09T09:48:25.084Z,96519.00
2024-05-09T09:49:25.042Z,96515.00
2024-05-09T09:50:31.851Z,96517.00
2024-05-09T09:51:25.994Z,96516.00
2024-05-09T09:52:25.063Z,96518.00
2024-05-09T09:53:25.011Z,96517.00
2024-05-09T09:54:24.989Z,96515.00
2024-05-09T09:55:25.149Z,96518.00
2024-05-09T09:56:25.004Z,96515.00
2024-05-09T09:57:24.998Z,96513.00
2024-05-09T09:58:25.157Z,96513.00
2024-05-09T09:59:25.005Z,96514.00
2024-05-09T10:00:30.573Z,96514.00
2024-05-09T10:01:26.062Z,96512.00
2024-05-09T10:02:25.194Z,96512.00
2024-05-09T10:03:25.118Z,96511.00
2024-05-09T10:04:25.140Z,96509.00
2024-05-09T10:05:25.298Z,96507.00
2024-05-09T10:06:25.028Z,96505.00
2024-05-09T10:07:25.044Z,96507.00
2024-05-09T10:08:25.027Z,96506.00
2024-05-09T10:09:25.050Z,96507.00
2024-05-09T10:10:31.487Z,96508.00
2024-05-09T10:11:26.056Z,96506.00
2024-05-09T10:12:25.074Z,96506.00
2024-05-09T10:13:25.092Z,96506.00
2024-05-09T10:14:25.078Z,96506.00
2024-05-09T10:15:25.026Z,96505.00
2024-05-09T10:16:25.120Z,96505.00
2024-05-09T10:17:25.214Z,96505.00
2024-05-09T10:18:28.474Z,96505.00
2024-05-09T10:19:26.098Z,96500.00
2024-05-09T10:20:28.251Z,96500.00
2024-05-09T10:21:26.049Z,96501.00
2024-05-09T10:22:25.121Z,96500.00
2024-05-09T10:23:25.048Z,96501.00
2024-05-09T10:24:25.126Z,96496.00
2024-05-09T10:25:25.143Z,96495.00
2024-05-09T10:26:25.059Z,96496.00
2024-05-09T10:27:25.066Z,96497.00
2024-05-09T10:28:25.157Z,96498.00
2024-05-09T10:29:25.057Z,96495.00
2024-05-09T10:30:33.390Z,96495.00
2024-05-09T10:31:26.091Z,96491.00
2024-05-09T10:32:25.150Z,96490.00
2024-05-09T10:33:25.144Z,96490.00
2024-05-09T10:34:25.396Z,96488.00
2024-05-09T10:35:25.094Z,96489.00
2024-05-09T10:36:25.167Z,96489.00
2024-05-09T10:37:25.142Z,96489.00
2024-05-09T10:38:25.071Z,96489.00
2024-05-09T10:39:25.094Z,96489.00
2024-05-09T10:40:31.002Z,96488.00
2024-05-09T10:41:26.083Z,96488.00
2024-05-09T10:42:25.096Z,96485.00
2024-05-09T10:43:25.123Z,96483.00
2024-05-09T10:44:25.100Z,96483.00
2024-05-09T10:45:25.076Z,96483.00
2024-05-09T10:46:25.108Z,96482.00
2024-05-09T10:47:25.234Z,96482.00
2024-05-09T10:48:25.200Z,96479.00
2024-05-09T10:49:25.161Z,96480.00
2024-05-09T10:50:28.775Z,96480.00
2024-05-09T10:51:26.098Z,96479.00
2024-05-09T10:52:25.143Z,96477.00
2024-05-09T10:53:25.105Z,96478.00
2024-05-09T10:54:25.100Z,96475.00
2024-05-09T10:55:25.140Z,96475.00
2024-05-09T10:56:25.117Z,96474.00
2024-05-09T10:57:25.124Z,96474.00
2024-05-09T10:58:46.135Z,96473.00
2024-05-09T10:59:25.117Z,96473.00
2024-05-09T11:00:33.067Z,96471.00
2024-05-09T11:01:26.260Z,96471.00
2024-05-09T11:02:25.408Z,96471.00
2024-05-09T11:03:25.167Z,96470.00
2024-05-09T11:04:25.223Z,96470.00
2024-05-09T11:05:25.174Z,96471.00
2024-05-09T11:06:25.139Z,96471.00
2024-05-09T11:07:25.241Z,96472.00
2024-05-09T11:08:25.128Z,96473.00
2024-05-09T11:09:25.131Z,96473.00
2024-05-09T11:10:31.829Z,96471.00
2024-05-09T11:11:26.177Z,96471.00
2024-05-09T11:12:25.151Z,96471.00
2024-05-09T11:13:25.136Z,96469.00
2024-05-09T11:14:25.139Z,96472.00
2024-05-09T11:15:25.167Z,96467.00
2024-05-09T11:16:25.453Z,96468.00
2024-05-09T11:17:25.303Z,96469.00
2024-05-09T11:18:26.617Z,96469.00
2024-05-09T11:19:25.364Z,96467.00
2024-05-09T11:20:29.689Z,96467.00
2024-05-09T11:21:26.166Z,96466.00
2024-05-09T11:22:25.277Z,96465.00
2024-05-09T11:23:25.195Z,96464.00
2024-05-09T11:24:25.173Z,96461.00
2024-05-09T11:25:25.232Z,96464.00
2024-05-09T11:26:25.267Z,96461.00
2024-05-09T11:27:25.185Z,96462.00
2024-05-09T11:28:25.261Z,96461.00
2024-05-09T11:29:25.190Z,96461.00
2024-05-09T11:30:30.162Z,96459.00
2024-05-09T11:31:26.256Z,96462.00
2024-05-09T11:32:25.419Z,96461.00
2024-05-09T11:33:25.234Z,96460.00
2024-05-09T11:34:25.243Z,96460.00
2024-05-09T11:35:25.201Z,96461.00
2024-05-09T11:36:25.210Z,96459.00
2024-05-09T11:37:25.301Z,96455.00
2024-05-09T11:38:25.203Z,96453.00
2024-05-09T11:39:25.270Z,96457.00
2024-05-09T11:40:31.978Z,96453.00
2024-05-09T11:41:26.221Z,96454.00
2024-05-09T11:42:25.216Z,96455.00
2024-05-09T11:43:25.367Z,96454.00
2024-05-09T11:44:25.248Z,96454.00
2024-05-09T11:45:25.233Z,96453.00
2024-05-09T11:46:25.243Z,96453.00
2024-05-09T11:47:25.384Z,96451.00
2024-05-09T11:48:25.801Z,96452.00
2024-05-09T11:49:27.033Z,96450.00
2024-05-09T11:50:30.035Z,96448.00
2024-05-09T11:51:26.264Z,96449.00
2024-05-09T11:52:25.292Z,96450.00
2024-05-09T11:53:25.308Z,96449.00
2024-05-09T11:54:25.256Z,96447.00
2024-05-09T11:55:28.010Z,96443.00